Farwell-Lumberjack Run

Saturday, July 28, 2018 8:00 AM (GMT-4) - Preliminary results

Race info
Sport: Running - road
Location: Farwell, MI, United States
Start type: Manual wave start
Wave grouping: By distance
Racers: 23
Timed on: iPhone
Timed with: Webscorer PRO 3.0
Updated: Saturday, July 28, 2018 12:01 PM (GMT-4)

Contact organizer

Use this form to send an email to the organizer.

Your name
Your email address
Confirm email address
Message to organizer
Send

Farwell-Lumberjack Run

Place Bib Racer name Category Age Gender Finish time
127Hunter FougnerMens 15-1916M 1:22:07.7--100%22.99%21.88%
235Joshua SkampoMens 30-3936M 1:26:26.6+4:18.9+5.25%95.01%18.95%17.77%
377Weston RackleyMens 15-1919M 1:26:59.8+4:52.1+5.93%94.40%18.43%17.25%
46Alexander StanekMens 20-2923M 1:33:06.7+10:59.0+13.37%88.20%12.70%11.43%
537Justin ScullyMens 20-2926M 1:33:09.5+11:01.8+13.43%88.16%12.65%11.38%
612Caden HoezeeMens 15-1915M 1:33:51.3+11:43.6+14.28%87.51%12.00%10.72%
791Roger YobMens 50-59M 1:37:28.8+15:21.1+18.69%84.25%8.60%7.27%
84Adam JasonMens 15-1918M 1:38:49.6+16:41.9+20.33%83.10%7.34%5.99%
836Julian AbbottMens 15-1918M 1:38:49.6+16:41.9+20.33%83.10%7.34%5.99%
822Gabe GoosenMens 15-1917M 1:38:49.6+16:41.9+20.33%83.10%7.34%5.99%
1131Jeffrey SchlickerMens 20-2921M 1:44:19.8+22:12.1+27.03%78.72%2.18%0.76%
1218Dave BaxterMens 40-4940M 1:45:55.3+23:47.6+28.97%77.54%0.68%-0.76%
133Adam AshleyMens 15-1917M 1:46:31.3+24:23.6+29.70%77.10%0.12%-1.33%
1446Logan LevandoskiMens 15-1916M 1:50:11.3+28:03.6+34.17%74.53%-3.32%-4.82%
1540Kenneth TotengcoMens 15-1917M 1:51:31.3+29:23.6+35.79%73.64%-4.57%-6.08%
1660Patrick HernandezMens 20-2927M 1:52:36.6+30:28.9+37.11%72.93%-5.59%-7.12%
1769Skyler ZokoeMens 15-1917M 1:52:49.6+30:41.9+37.38%72.79%-5.79%-7.33%
1888Karl HauserMens 50-59M 1:58:16.1+36:08.4+44.00%69.44%-10.89%-12.50%
1911Brian KlesmithMens 30-3932M 2:00:33.3+38:25.6+46.79%68.13%-13.04%-14.68%
2065Robert CrawMens 50-5951M 2:10:35.6+48:27.9+59.01%62.89%-22.45%-24.23%
2156Nick PrzybycielMens 30-3936M 2:20:36.7+58:29.0+71.21%58.41%-31.84%-33.76%
2262Phil """"Puma"""" MataMens 40-4947M 2:22:43.6+1:00:35.9+73.78%57.54%-33.83%-35.77%
-70Stephen PankowskiMens 50-5956M DNF-----